sensor_id;sensor_type;location;lat;lon;timestamp;P1;durP1;ratioP1;P2;durP2;ratioP2
71320;SDS011;59118;54.322;18.576;2022-08-21T00:00:20;17.42;;;12.63;;
71320;SDS011;59118;54.322;18.576;2022-08-21T00:02:51;15.53;;;11.20;;
71320;SDS011;59118;54.322;18.576;2022-08-21T00:05:24;13.90;;;10.88;;
71320;SDS011;59118;54.322;18.576;2022-08-21T00:07:51;13.60;;;10.52;;
71320;SDS011;59118;54.322;18.576;2022-08-21T00:10:19;13.45;;;10.38;;
71320;SDS011;59118;54.322;18.576;2022-08-21T00:12:49;15.07;;;10.15;;
71320;SDS011;59118;54.322;18.576;2022-08-21T00:15:17;14.50;;;10.03;;
71320;SDS011;59118;54.322;18.576;2022-08-21T00:17:48;13.50;;;9.40;;
71320;SDS011;59118;54.322;18.576;2022-08-21T00:20:16;12.73;;;9.13;;
71320;SDS011;59118;54.322;18.576;2022-08-21T00:22:43;12.95;;;9.73;;
71320;SDS011;59118;54.322;18.576;2022-08-21T00:25:10;12.35;;;9.38;;
71320;SDS011;59118;54.322;18.576;2022-08-21T00:27:37;12.47;;;9.00;;
71320;SDS011;59118;54.322;18.576;2022-08-21T00:30:05;11.90;;;9.00;;
71320;SDS011;59118;54.322;18.576;2022-08-21T00:32:33;11.90;;;9.38;;
71320;SDS011;59118;54.322;18.576;2022-08-21T00:35:00;13.88;;;9.77;;
71320;SDS011;59118;54.322;18.576;2022-08-21T00:37:26;13.07;;;10.63;;
71320;SDS011;59118;54.322;18.576;2022-08-21T00:39:55;13.80;;;9.70;;
71320;SDS011;59118;54.322;18.576;2022-08-21T00:42:23;13.38;;;10.23;;
71320;SDS011;59118;54.322;18.576;2022-08-21T00:44:51;13.80;;;10.02;;
71320;SDS011;59118;54.322;18.576;2022-08-21T00:47:18;14.20;;;10.10;;
71320;SDS011;59118;54.322;18.576;2022-08-21T00:49:45;14.38;;;9.75;;
71320;SDS011;59118;54.322;18.576;2022-08-21T00:52:17;12.93;;;9.73;;
71320;SDS011;59118;54.322;18.576;2022-08-21T00:54:47;12.68;;;9.10;;
71320;SDS011;59118;54.322;18.576;2022-08-21T00:57:16;14.80;;;9.90;;
71320;SDS011;59118;54.322;18.576;2022-08-21T00:59:49;15.32;;;9.77;;
71320;SDS011;59118;54.322;18.576;2022-08-21T01:02:20;13.70;;;8.98;;
71320;SDS011;59118;54.322;18.576;2022-08-21T01:04:47;12.43;;;9.50;;
71320;SDS011;59118;54.322;18.576;2022-08-21T01:07:14;13.75;;;9.68;;
71320;SDS011;59118;54.322;18.576;2022-08-21T01:09:48;11.52;;;8.90;;
71320;SDS011;59118;54.322;18.576;2022-08-21T01:12:17;12.35;;;8.63;;
71320;SDS011;59118;54.322;18.576;2022-08-21T01:14:47;13.73;;;8.85;;
71320;SDS011;59118;54.322;18.576;2022-08-21T01:17:14;12.47;;;9.17;;
71320;SDS011;59118;54.322;18.576;2022-08-21T01:19:41;11.85;;;8.30;;
71320;SDS011;59118;54.322;18.576;2022-08-21T01:22:08;13.18;;;9.50;;
71320;SDS011;59118;54.322;18.576;2022-08-21T01:24:37;13.57;;;10.00;;
71320;SDS011;59118;54.322;18.576;2022-08-21T01:27:07;17.33;;;13.05;;
71320;SDS011;59118;54.322;18.576;2022-08-21T01:29:45;31.13;;;23.97;;
71320;SDS011;59118;54.322;18.576;2022-08-21T01:32:34;36.83;;;27.08;;
71320;SDS011;59118;54.322;18.576;2022-08-21T01:35:00;29.90;;;20.88;;
71320;SDS011;59118;54.322;18.576;2022-08-21T01:37:35;18.83;;;13.57;;
71320;SDS011;59118;54.322;18.576;2022-08-21T01:40:02;17.70;;;13.68;;
71320;SDS011;59118;54.322;18.576;2022-08-21T01:42:29;14.70;;;11.07;;
71320;SDS011;59118;54.322;18.576;2022-08-21T01:44:56;14.73;;;10.68;;
71320;SDS011;59118;54.322;18.576;2022-08-21T01:47:23;13.05;;;8.55;;
71320;SDS011;59118;54.322;18.576;2022-08-21T01:49:52;12.98;;;9.00;;
71320;SDS011;59118;54.322;18.576;2022-08-21T01:52:19;12.43;;;8.38;;
71320;SDS011;59118;54.322;18.576;2022-08-21T01:54:46;10.53;;;7.70;;
71320;SDS011;59118;54.322;18.576;2022-08-21T01:57:20;10.70;;;7.82;;
71320;SDS011;59118;54.322;18.576;2022-08-21T01:59:51;11.63;;;8.20;;
71320;SDS011;59118;54.322;18.576;2022-08-21T02:02:18;11.88;;;7.65;;
71320;SDS011;59118;54.322;18.576;2022-08-21T02:04:45;10.48;;;7.22;;
71320;SDS011;59118;54.322;18.576;2022-08-21T02:07:11;9.50;;;6.93;;
71320;SDS011;59118;54.322;18.576;2022-08-21T02:09:38;9.73;;;6.82;;
71320;SDS011;59118;54.322;18.576;2022-08-21T02:12:05;9.20;;;6.18;;
71320;SDS011;59118;54.322;18.576;2022-08-21T02:14:32;9.90;;;6.18;;
71320;SDS011;59118;54.322;18.576;2022-08-21T02:16:59;8.95;;;6.47;;
71320;SDS011;59118;54.322;18.576;2022-08-21T02:19:34;9.60;;;6.20;;
71320;SDS011;59118;54.322;18.576;2022-08-21T02:22:07;9.77;;;6.05;;
71320;SDS011;59118;54.322;18.576;2022-08-21T02:24:58;8.95;;;6.25;;
71320;SDS011;59118;54.322;18.576;2022-08-21T02:27:26;9.40;;;6.90;;
71320;SDS011;59118;54.322;18.576;2022-08-21T02:29:55;11.07;;;7.43;;
71320;SDS011;59118;54.322;18.576;2022-08-21T02:32:23;11.10;;;7.63;;
71320;SDS011;59118;54.322;18.576;2022-08-21T02:34:52;9.38;;;7.22;;
71320;SDS011;59118;54.322;18.576;2022-08-21T02:37:19;10.20;;;7.53;;
71320;SDS011;59118;54.322;18.576;2022-08-21T02:39:45;12.73;;;7.80;;
71320;SDS011;59118;54.322;18.576;2022-08-21T02:42:14;10.98;;;7.50;;
71320;SDS011;59118;54.322;18.576;2022-08-21T02:44:40;11.77;;;7.93;;
71320;SDS011;59118;54.322;18.576;2022-08-21T02:47:07;10.80;;;7.78;;
71320;SDS011;59118;54.322;18.576;2022-08-21T02:49:33;12.18;;;9.02;;
71320;SDS011;59118;54.322;18.576;2022-08-21T02:52:00;12.32;;;8.70;;
71320;SDS011;59118;54.322;18.576;2022-08-21T02:54:26;11.02;;;8.05;;
71320;SDS011;59118;54.322;18.576;2022-08-21T02:56:53;11.60;;;8.07;;
71320;SDS011;59118;54.322;18.576;2022-08-21T02:59:20;10.57;;;8.20;;
71320;SDS011;59118;54.322;18.576;2022-08-21T03:01:47;13.05;;;8.50;;
71320;SDS011;59118;54.322;18.576;2022-08-21T03:04:15;11.95;;;8.57;;
71320;SDS011;59118;54.322;18.576;2022-08-21T03:06:42;10.90;;;8.25;;
71320;SDS011;59118;54.322;18.576;2022-08-21T03:09:09;12.50;;;8.10;;
71320;SDS011;59118;54.322;18.576;2022-08-21T03:11:35;13.13;;;8.20;;
71320;SDS011;59118;54.322;18.576;2022-08-21T03:14:04;12.75;;;8.75;;
71320;SDS011;59118;54.322;18.576;2022-08-21T03:16:31;11.13;;;8.10;;
71320;SDS011;59118;54.322;18.576;2022-08-21T03:19:00;11.85;;;8.20;;
71320;SDS011;59118;54.322;18.576;2022-08-21T03:21:28;12.43;;;8.53;;
71320;SDS011;59118;54.322;18.576;2022-08-21T03:23:55;12.75;;;9.05;;
71320;SDS011;59118;54.322;18.576;2022-08-21T03:26:22;11.80;;;8.80;;
71320;SDS011;59118;54.322;18.576;2022-08-21T03:28:48;12.40;;;8.45;;
71320;SDS011;59118;54.322;18.576;2022-08-21T03:31:16;12.80;;;8.63;;
71320;SDS011;59118;54.322;18.576;2022-08-21T03:33:43;12.40;;;8.63;;
71320;SDS011;59118;54.322;18.576;2022-08-21T03:36:11;11.68;;;8.60;;
71320;SDS011;59118;54.322;18.576;2022-08-21T03:38:38;11.88;;;9.10;;
71320;SDS011;59118;54.322;18.576;2022-08-21T03:41:05;12.73;;;9.18;;
71320;SDS011;59118;54.322;18.576;2022-08-21T03:43:33;13.05;;;9.68;;
71320;SDS011;59118;54.322;18.576;2022-08-21T03:46:01;14.17;;;9.20;;
71320;SDS011;59118;54.322;18.576;2022-08-21T03:48:29;13.20;;;8.93;;
71320;SDS011;59118;54.322;18.576;2022-08-21T03:50:58;13.23;;;8.82;;
71320;SDS011;59118;54.322;18.576;2022-08-21T03:53:26;11.85;;;8.60;;
71320;SDS011;59118;54.322;18.576;2022-08-21T03:55:53;14.68;;;9.43;;
71320;SDS011;59118;54.322;18.576;2022-08-21T03:58:21;13.10;;;9.13;;
71320;SDS011;59118;54.322;18.576;2022-08-21T04:00:51;13.55;;;9.02;;
71320;SDS011;59118;54.322;18.576;2022-08-21T04:03:20;13.60;;;8.82;;
71320;SDS011;59118;54.322;18.576;2022-08-21T04:05:48;13.18;;;8.93;;
71320;SDS011;59118;54.322;18.576;2022-08-21T04:08:17;14.32;;;9.48;;
71320;SDS011;59118;54.322;18.576;2022-08-21T04:10:46;15.13;;;8.93;;
71320;SDS011;59118;54.322;18.576;2022-08-21T04:13:14;14.70;;;9.00;;
71320;SDS011;59118;54.322;18.576;2022-08-21T04:15:41;13.00;;;9.30;;
71320;SDS011;59118;54.322;18.576;2022-08-21T04:18:08;12.23;;;8.82;;
71320;SDS011;59118;54.322;18.576;2022-08-21T04:20:34;14.07;;;9.30;;
71320;SDS011;59118;54.322;18.576;2022-08-21T04:23:02;13.67;;;9.07;;
71320;SDS011;59118;54.322;18.576;2022-08-21T04:25:30;12.48;;;8.63;;
71320;SDS011;59118;54.322;18.576;2022-08-21T04:27:57;12.65;;;8.95;;
71320;SDS011;59118;54.322;18.576;2022-08-21T04:30:27;14.85;;;9.15;;
71320;SDS011;59118;54.322;18.576;2022-08-21T04:33:01;13.98;;;9.07;;
71320;SDS011;59118;54.322;18.576;2022-08-21T04:35:29;13.87;;;8.73;;
71320;SDS011;59118;54.322;18.576;2022-08-21T04:37:56;16.73;;;9.55;;
71320;SDS011;59118;54.322;18.576;2022-08-21T04:40:24;16.98;;;9.98;;
71320;SDS011;59118;54.322;18.576;2022-08-21T04:42:53;16.30;;;9.43;;
71320;SDS011;59118;54.322;18.576;2022-08-21T04:45:39;14.77;;;9.38;;
71320;SDS011;59118;54.322;18.576;2022-08-21T04:48:08;14.60;;;9.70;;
71320;SDS011;59118;54.322;18.576;2022-08-21T04:50:59;14.13;;;9.23;;
71320;SDS011;59118;54.322;18.576;2022-08-21T04:53:47;13.23;;;9.20;;
71320;SDS011;59118;54.322;18.576;2022-08-21T04:56:33;17.35;;;9.77;;
71320;SDS011;59118;54.322;18.576;2022-08-21T04:59:04;17.08;;;10.15;;
71320;SDS011;59118;54.322;18.576;2022-08-21T05:02:12;15.03;;;9.87;;
71320;SDS011;59118;54.322;18.576;2022-08-21T05:04:48;16.77;;;10.07;;
71320;SDS011;59118;54.322;18.576;2022-08-21T05:07:19;13.45;;;9.32;;
71320;SDS011;59118;54.322;18.576;2022-08-21T05:10:08;15.02;;;9.25;;
71320;SDS011;59118;54.322;18.576;2022-08-21T05:12:37;12.75;;;9.00;;
71320;SDS011;59118;54.322;18.576;2022-08-21T05:15:04;15.93;;;8.77;;
71320;SDS011;59118;54.322;18.576;2022-08-21T05:17:30;16.92;;;9.43;;
71320;SDS011;59118;54.322;18.576;2022-08-21T05:20:03;17.40;;;8.95;;
71320;SDS011;59118;54.322;18.576;2022-08-21T05:22:30;14.73;;;9.38;;
71320;SDS011;59118;54.322;18.576;2022-08-21T05:24:56;15.85;;;9.63;;
71320;SDS011;59118;54.322;18.576;2022-08-21T05:27:24;13.33;;;9.47;;
71320;SDS011;59118;54.322;18.576;2022-08-21T05:29:52;16.08;;;9.77;;
71320;SDS011;59118;54.322;18.576;2022-08-21T05:32:19;14.80;;;9.65;;
71320;SDS011;59118;54.322;18.576;2022-08-21T05:34:47;13.43;;;9.65;;
71320;SDS011;59118;54.322;18.576;2022-08-21T05:37:15;13.30;;;9.45;;
71320;SDS011;59118;54.322;18.576;2022-08-21T05:39:41;15.43;;;9.00;;
71320;SDS011;59118;54.322;18.576;2022-08-21T05:42:28;13.93;;;8.75;;
71320;SDS011;59118;54.322;18.576;2022-08-21T05:44:55;12.85;;;8.02;;
71320;SDS011;59118;54.322;18.576;2022-08-21T05:47:21;11.00;;;7.80;;
71320;SDS011;59118;54.322;18.576;2022-08-21T05:49:48;11.90;;;7.50;;
71320;SDS011;59118;54.322;18.576;2022-08-21T05:52:18;10.80;;;5.97;;
71320;SDS011;59118;54.322;18.576;2022-08-21T05:54:48;9.32;;;5.75;;
71320;SDS011;59118;54.322;18.576;2022-08-21T05:57:15;8.93;;;6.05;;
71320;SDS011;59118;54.322;18.576;2022-08-21T05:59:41;8.48;;;5.65;;
71320;SDS011;59118;54.322;18.576;2022-08-21T06:02:08;10.90;;;6.05;;
71320;SDS011;59118;54.322;18.576;2022-08-21T06:04:35;8.50;;;5.30;;
71320;SDS011;59118;54.322;18.576;2022-08-21T06:07:03;10.48;;;5.60;;
71320;SDS011;59118;54.322;18.576;2022-08-21T06:09:30;9.45;;;5.40;;
71320;SDS011;59118;54.322;18.576;2022-08-21T06:11:58;8.32;;;5.40;;
71320;SDS011;59118;54.322;18.576;2022-08-21T06:14:24;9.25;;;5.35;;
71320;SDS011;59118;54.322;18.576;2022-08-21T06:16:51;7.47;;;5.13;;
71320;SDS011;59118;54.322;18.576;2022-08-21T06:19:20;9.38;;;5.68;;
71320;SDS011;59118;54.322;18.576;2022-08-21T06:21:47;8.65;;;5.72;;
71320;SDS011;59118;54.322;18.576;2022-08-21T06:24:13;9.75;;;6.07;;
71320;SDS011;59118;54.322;18.576;2022-08-21T06:26:40;9.73;;;5.50;;
71320;SDS011;59118;54.322;18.576;2022-08-21T06:29:07;9.47;;;6.50;;
71320;SDS011;59118;54.322;18.576;2022-08-21T06:31:36;9.80;;;7.00;;
71320;SDS011;59118;54.322;18.576;2022-08-21T06:34:04;10.35;;;6.85;;
71320;SDS011;59118;54.322;18.576;2022-08-21T06:36:30;9.18;;;6.18;;
71320;SDS011;59118;54.322;18.576;2022-08-21T06:38:57;9.55;;;6.72;;
71320;SDS011;59118;54.322;18.576;2022-08-21T06:41:25;10.37;;;6.10;;
71320;SDS011;59118;54.322;18.576;2022-08-21T06:43:54;10.30;;;6.50;;
71320;SDS011;59118;54.322;18.576;2022-08-21T06:46:21;10.63;;;6.03;;
71320;SDS011;59118;54.322;18.576;2022-08-21T06:48:48;9.45;;;6.03;;
71320;SDS011;59118;54.322;18.576;2022-08-21T06:51:15;9.65;;;5.80;;
71320;SDS011;59118;54.322;18.576;2022-08-21T06:53:42;9.47;;;5.73;;
71320;SDS011;59118;54.322;18.576;2022-08-21T06:56:11;8.55;;;5.78;;
71320;SDS011;59118;54.322;18.576;2022-08-21T06:58:37;8.75;;;5.75;;
71320;SDS011;59118;54.322;18.576;2022-08-21T07:01:04;8.55;;;5.68;;
71320;SDS011;59118;54.322;18.576;2022-08-21T07:03:32;7.57;;;4.88;;
71320;SDS011;59118;54.322;18.576;2022-08-21T07:06:02;6.73;;;4.47;;
71320;SDS011;59118;54.322;18.576;2022-08-21T07:08:29;9.30;;;4.80;;
71320;SDS011;59118;54.322;18.576;2022-08-21T07:10:57;6.93;;;4.63;;
71320;SDS011;59118;54.322;18.576;2022-08-21T07:13:25;8.77;;;5.00;;
71320;SDS011;59118;54.322;18.576;2022-08-21T07:15:52;9.65;;;4.97;;
71320;SDS011;59118;54.322;18.576;2022-08-21T07:18:19;8.80;;;5.10;;
71320;SDS011;59118;54.322;18.576;2022-08-21T07:20:47;7.90;;;4.78;;
71320;SDS011;59118;54.322;18.576;2022-08-21T07:23:24;8.57;;;4.97;;
71320;SDS011;59118;54.322;18.576;2022-08-21T07:26:02;8.90;;;5.43;;
71320;SDS011;59118;54.322;18.576;2022-08-21T07:28:31;8.15;;;5.05;;
71320;SDS011;59118;54.322;18.576;2022-08-21T07:30:58;9.37;;;5.27;;
71320;SDS011;59118;54.322;18.576;2022-08-21T07:33:26;7.68;;;4.97;;
71320;SDS011;59118;54.322;18.576;2022-08-21T07:35:56;9.60;;;5.43;;
71320;SDS011;59118;54.322;18.576;2022-08-21T07:38:23;9.88;;;5.88;;
71320;SDS011;59118;54.322;18.576;2022-08-21T07:40:50;11.38;;;6.05;;
71320;SDS011;59118;54.322;18.576;2022-08-21T07:43:17;10.07;;;5.80;;
71320;SDS011;59118;54.322;18.576;2022-08-21T07:45:44;8.88;;;6.15;;
71320;SDS011;59118;54.322;18.576;2022-08-21T07:48:11;9.82;;;5.80;;
71320;SDS011;59118;54.322;18.576;2022-08-21T07:50:39;9.95;;;5.60;;
71320;SDS011;59118;54.322;18.576;2022-08-21T07:53:06;10.23;;;6.10;;
71320;SDS011;59118;54.322;18.576;2022-08-21T07:55:33;10.03;;;5.93;;
71320;SDS011;59118;54.322;18.576;2022-08-21T07:58:00;9.30;;;5.60;;
71320;SDS011;59118;54.322;18.576;2022-08-21T08:00:27;8.07;;;5.55;;
71320;SDS011;59118;54.322;18.576;2022-08-21T08:02:55;9.45;;;5.80;;
71320;SDS011;59118;54.322;18.576;2022-08-21T08:05:26;9.80;;;6.13;;
71320;SDS011;59118;54.322;18.576;2022-08-21T08:07:54;7.57;;;5.00;;
71320;SDS011;59118;54.322;18.576;2022-08-21T08:10:21;8.90;;;5.88;;
71320;SDS011;59118;54.322;18.576;2022-08-21T08:12:48;9.38;;;6.00;;
71320;SDS011;59118;54.322;18.576;2022-08-21T08:15:16;7.93;;;5.43;;
71320;SDS011;59118;54.322;18.576;2022-08-21T08:17:50;8.07;;;5.65;;
71320;SDS011;59118;54.322;18.576;2022-08-21T08:20:19;8.53;;;5.43;;
71320;SDS011;59118;54.322;18.576;2022-08-21T08:22:47;8.23;;;4.97;;
71320;SDS011;59118;54.322;18.576;2022-08-21T08:25:15;7.55;;;4.72;;
71320;SDS011;59118;54.322;18.576;2022-08-21T08:27:46;9.13;;;5.25;;
71320;SDS011;59118;54.322;18.576;2022-08-21T08:30:16;9.15;;;5.25;;
71320;SDS011;59118;54.322;18.576;2022-08-21T08:32:47;10.23;;;5.03;;
71320;SDS011;59118;54.322;18.576;2022-08-21T08:35:14;8.73;;;4.65;;
71320;SDS011;59118;54.322;18.576;2022-08-21T08:37:41;8.60;;;5.10;;
71320;SDS011;59118;54.322;18.576;2022-08-21T08:40:12;8.38;;;4.35;;
71320;SDS011;59118;54.322;18.576;2022-08-21T08:42:40;7.95;;;4.78;;
71320;SDS011;59118;54.322;18.576;2022-08-21T08:45:18;7.90;;;4.63;;
71320;SDS011;59118;54.322;18.576;2022-08-21T08:47:51;8.20;;;4.80;;
71320;SDS011;59118;54.322;18.576;2022-08-21T08:50:41;11.07;;;5.20;;
71320;SDS011;59118;54.322;18.576;2022-08-21T08:53:14;10.63;;;5.22;;
71320;SDS011;59118;54.322;18.576;2022-08-21T08:55:44;8.90;;;4.88;;
71320;SDS011;59118;54.322;18.576;2022-08-21T09:00:54;10.25;;;4.53;;
71320;SDS011;59118;54.322;18.576;2022-08-21T09:03:24;8.13;;;4.40;;
71320;SDS011;59118;54.322;18.576;2022-08-21T09:08:39;8.00;;;4.45;;
71320;SDS011;59118;54.322;18.576;2022-08-21T09:11:26;7.53;;;4.53;;
71320;SDS011;59118;54.322;18.576;2022-08-21T09:25:02;7.83;;;4.30;;
71320;SDS011;59118;54.322;18.576;2022-08-21T09:27:43;8.15;;;4.50;;
71320;SDS011;59118;54.322;18.576;2022-08-21T09:30:10;8.93;;;4.30;;
71320;SDS011;59118;54.322;18.576;2022-08-21T09:32:37;8.68;;;4.40;;
71320;SDS011;59118;54.322;18.576;2022-08-21T09:35:09;8.30;;;4.07;;
71320;SDS011;59118;54.322;18.576;2022-08-21T09:38:22;6.97;;;4.47;;
71320;SDS011;59118;54.322;18.576;2022-08-21T09:40:41;6.57;;;3.97;;
71320;SDS011;59118;54.322;18.576;2022-08-21T09:45:41;8.93;;;4.72;;
71320;SDS011;59118;54.322;18.576;2022-08-21T09:48:19;9.15;;;4.43;;
71320;SDS011;59118;54.322;18.576;2022-08-21T09:51:09;7.00;;;4.50;;
71320;SDS011;59118;54.322;18.576;2022-08-21T09:53:41;9.75;;;5.07;;
71320;SDS011;59118;54.322;18.576;2022-08-21T09:56:28;8.15;;;4.63;;
71320;SDS011;59118;54.322;18.576;2022-08-21T10:02:03;8.55;;;4.40;;
71320;SDS011;59118;54.322;18.576;2022-08-21T10:05:01;7.70;;;4.20;;
71320;SDS011;59118;54.322;18.576;2022-08-21T10:07:35;8.50;;;4.43;;
71320;SDS011;59118;54.322;18.576;2022-08-21T10:10:04;8.52;;;4.95;;
71320;SDS011;59118;54.322;18.576;2022-08-21T10:15:20;8.90;;;4.70;;
71320;SDS011;59118;54.322;18.576;2022-08-21T10:18:19;10.10;;;3.80;;
71320;SDS011;59118;54.322;18.576;2022-08-21T10:21:20;7.07;;;3.53;;
71320;SDS011;59118;54.322;18.576;2022-08-21T10:34:55;8.20;;;3.60;;
71320;SDS011;59118;54.322;18.576;2022-08-21T10:49:04;10.00;;;3.75;;
71320;SDS011;59118;54.322;18.576;2022-08-21T11:00:22;6.57;;;3.63;;
71320;SDS011;59118;54.322;18.576;2022-08-21T11:03:10;8.65;;;3.90;;
71320;SDS011;59118;54.322;18.576;2022-08-21T11:05:58;7.05;;;3.10;;
71320;SDS011;59118;54.322;18.576;2022-08-21T11:08:31;7.32;;;3.00;;
71320;SDS011;59118;54.322;18.576;2022-08-21T11:11:16;5.32;;;3.10;;
71320;SDS011;59118;54.322;18.576;2022-08-21T11:19:12;6.53;;;3.00;;
71320;SDS011;59118;54.322;18.576;2022-08-21T11:24:54;6.78;;;3.05;;
71320;SDS011;59118;54.322;18.576;2022-08-21T11:27:25;7.33;;;3.40;;
71320;SDS011;59118;54.322;18.576;2022-08-21T11:30:03;7.95;;;3.60;;
71320;SDS011;59118;54.322;18.576;2022-08-21T11:35:39;8.18;;;3.45;;
71320;SDS011;59118;54.322;18.576;2022-08-21T11:40:54;6.57;;;2.90;;
71320;SDS011;59118;54.322;18.576;2022-08-21T11:48:52;5.82;;;2.72;;
71320;SDS011;59118;54.322;18.576;2022-08-21T11:54:20;5.63;;;3.10;;
71320;SDS011;59118;54.322;18.576;2022-08-21T11:57:24;6.28;;;2.88;;
71320;SDS011;59118;54.322;18.576;2022-08-21T12:02:34;6.00;;;2.88;;
71320;SDS011;59118;54.322;18.576;2022-08-21T12:05:04;7.63;;;2.83;;
71320;SDS011;59118;54.322;18.576;2022-08-21T12:07:38;4.40;;;2.87;;
71320;SDS011;59118;54.322;18.576;2022-08-21T12:10:18;5.85;;;2.65;;
71320;SDS011;59118;54.322;18.576;2022-08-21T12:12:50;6.43;;;2.78;;
71320;SDS011;59118;54.322;18.576;2022-08-21T12:15:24;3.47;;;2.33;;
71320;SDS011;59118;54.322;18.576;2022-08-21T12:17:57;6.45;;;2.50;;
71320;SDS011;59118;54.322;18.576;2022-08-21T12:23:06;4.93;;;2.35;;
71320;SDS011;59118;54.322;18.576;2022-08-21T12:26:26;6.07;;;2.65;;
71320;SDS011;59118;54.322;18.576;2022-08-21T12:28:50;5.97;;;2.60;;
71320;SDS011;59118;54.322;18.576;2022-08-21T12:31:25;5.05;;;2.10;;
71320;SDS011;59118;54.322;18.576;2022-08-21T12:34:08;7.10;;;2.20;;
71320;SDS011;59118;54.322;18.576;2022-08-21T12:36:44;9.73;;;3.83;;
71320;SDS011;59118;54.322;18.576;2022-08-21T12:39:14;6.97;;;2.53;;
71320;SDS011;59118;54.322;18.576;2022-08-21T12:44:53;9.13;;;2.40;;
71320;SDS011;59118;54.322;18.576;2022-08-21T12:48:06;6.37;;;2.40;;
71320;SDS011;59118;54.322;18.576;2022-08-21T12:50:36;5.85;;;2.53;;
71320;SDS011;59118;54.322;18.576;2022-08-21T12:53:07;6.43;;;2.00;;
71320;SDS011;59118;54.322;18.576;2022-08-21T12:55:46;6.40;;;2.00;;
71320;SDS011;59118;54.322;18.576;2022-08-21T12:58:22;7.97;;;2.70;;
71320;SDS011;59118;54.322;18.576;2022-08-21T13:00:51;6.57;;;2.23;;
71320;SDS011;59118;54.322;18.576;2022-08-21T13:03:19;6.40;;;2.30;;
71320;SDS011;59118;54.322;18.576;2022-08-21T13:05:48;7.80;;;2.67;;
71320;SDS011;59118;54.322;18.576;2022-08-21T13:08:19;6.40;;;2.10;;
71320;SDS011;59118;54.322;18.576;2022-08-21T13:10:46;7.13;;;2.55;;
71320;SDS011;59118;54.322;18.576;2022-08-21T13:13:17;9.07;;;3.17;;
71320;SDS011;59118;54.322;18.576;2022-08-21T13:16:00;7.10;;;2.60;;
71320;SDS011;59118;54.322;18.576;2022-08-21T13:18:35;5.43;;;2.03;;
71320;SDS011;59118;54.322;18.576;2022-08-21T13:21:19;6.68;;;2.25;;
71320;SDS011;59118;54.322;18.576;2022-08-21T13:23:47;5.03;;;1.80;;
71320;SDS011;59118;54.322;18.576;2022-08-21T13:26:18;6.03;;;1.80;;
71320;SDS011;59118;54.322;18.576;2022-08-21T13:28:48;5.57;;;1.88;;
71320;SDS011;59118;54.322;18.576;2022-08-21T13:31:18;7.07;;;1.92;;
71320;SDS011;59118;54.322;18.576;2022-08-21T13:33:49;4.22;;;1.73;;
71320;SDS011;59118;54.322;18.576;2022-08-21T13:36:35;5.30;;;1.95;;
71320;SDS011;59118;54.322;18.576;2022-08-21T13:39:04;7.90;;;2.00;;
71320;SDS011;59118;54.322;18.576;2022-08-21T13:41:34;5.68;;;1.85;;
71320;SDS011;59118;54.322;18.576;2022-08-21T13:44:24;4.95;;;2.10;;
71320;SDS011;59118;54.322;18.576;2022-08-21T13:46:53;5.35;;;2.10;;
71320;SDS011;59118;54.322;18.576;2022-08-21T13:49:21;8.10;;;1.98;;
71320;SDS011;59118;54.322;18.576;2022-08-21T13:51:59;7.37;;;2.30;;
71320;SDS011;59118;54.322;18.576;2022-08-21T13:54:51;8.77;;;2.40;;
71320;SDS011;59118;54.322;18.576;2022-08-21T13:57:31;5.32;;;2.13;;
71320;SDS011;59118;54.322;18.576;2022-08-21T14:02:49;9.77;;;2.17;;
71320;SDS011;59118;54.322;18.576;2022-08-21T14:07:49;5.00;;;2.00;;
71320;SDS011;59118;54.322;18.576;2022-08-21T14:10:20;5.32;;;2.00;;
71320;SDS011;59118;54.322;18.576;2022-08-21T14:12:54;6.38;;;2.15;;
71320;SDS011;59118;54.322;18.576;2022-08-21T14:15:24;4.97;;;2.20;;
71320;SDS011;59118;54.322;18.576;2022-08-21T14:17:55;5.27;;;2.40;;
71320;SDS011;59118;54.322;18.576;2022-08-21T14:21:11;7.38;;;2.03;;
71320;SDS011;59118;54.322;18.576;2022-08-21T14:23:39;8.13;;;2.20;;
71320;SDS011;59118;54.322;18.576;2022-08-21T14:26:06;5.38;;;2.13;;
71320;SDS011;59118;54.322;18.576;2022-08-21T14:28:34;6.72;;;2.30;;
71320;SDS011;59118;54.322;18.576;2022-08-21T14:31:13;6.30;;;2.33;;
71320;SDS011;59118;54.322;18.576;2022-08-21T14:33:45;5.78;;;2.20;;
71320;SDS011;59118;54.322;18.576;2022-08-21T14:36:11;6.30;;;2.50;;
71320;SDS011;59118;54.322;18.576;2022-08-21T14:38:39;8.27;;;2.33;;
71320;SDS011;59118;54.322;18.576;2022-08-21T14:41:13;7.85;;;2.40;;
71320;SDS011;59118;54.322;18.576;2022-08-21T14:43:42;5.13;;;2.30;;
71320;SDS011;59118;54.322;18.576;2022-08-21T14:46:09;5.72;;;2.33;;
71320;SDS011;59118;54.322;18.576;2022-08-21T14:48:37;5.32;;;2.17;;
71320;SDS011;59118;54.322;18.576;2022-08-21T14:51:04;6.65;;;2.17;;
71320;SDS011;59118;54.322;18.576;2022-08-21T14:53:30;5.30;;;1.90;;
71320;SDS011;59118;54.322;18.576;2022-08-21T14:55:57;5.77;;;1.83;;
71320;SDS011;59118;54.322;18.576;2022-08-21T14:58:37;4.90;;;1.90;;
71320;SDS011;59118;54.322;18.576;2022-08-21T15:01:06;7.70;;;3.95;;
71320;SDS011;59118;54.322;18.576;2022-08-21T15:03:34;3.65;;;1.70;;
71320;SDS011;59118;54.322;18.576;2022-08-21T15:06:02;5.90;;;1.95;;
71320;SDS011;59118;54.322;18.576;2022-08-21T15:08:30;4.33;;;1.83;;
71320;SDS011;59118;54.322;18.576;2022-08-21T15:10:57;5.80;;;1.77;;
71320;SDS011;59118;54.322;18.576;2022-08-21T15:13:46;4.80;;;1.70;;
71320;SDS011;59118;54.322;18.576;2022-08-21T15:16:13;7.80;;;1.90;;
71320;SDS011;59118;54.322;18.576;2022-08-21T15:18:40;6.90;;;1.88;;
71320;SDS011;59118;54.322;18.576;2022-08-21T15:21:08;3.43;;;1.77;;
71320;SDS011;59118;54.322;18.576;2022-08-21T15:23:34;6.05;;;1.70;;
71320;SDS011;59118;54.322;18.576;2022-08-21T15:26:09;7.75;;;1.90;;
71320;SDS011;59118;54.322;18.576;2022-08-21T15:28:35;6.80;;;3.17;;
71320;SDS011;59118;54.322;18.576;2022-08-21T15:31:04;9.27;;;2.15;;
71320;SDS011;59118;54.322;18.576;2022-08-21T15:33:31;6.37;;;2.10;;
71320;SDS011;59118;54.322;18.576;2022-08-21T15:35:59;9.05;;;2.20;;
71320;SDS011;59118;54.322;18.576;2022-08-21T15:38:26;6.07;;;2.03;;
71320;SDS011;59118;54.322;18.576;2022-08-21T15:40:52;7.97;;;2.15;;
71320;SDS011;59118;54.322;18.576;2022-08-21T15:43:29;5.55;;;2.10;;
71320;SDS011;59118;54.322;18.576;2022-08-21T15:45:58;7.33;;;2.30;;
71320;SDS011;59118;54.322;18.576;2022-08-21T15:48:26;8.38;;;2.30;;
71320;SDS011;59118;54.322;18.576;2022-08-21T15:50:53;7.40;;;2.17;;
71320;SDS011;59118;54.322;18.576;2022-08-21T15:53:19;7.72;;;2.03;;
71320;SDS011;59118;54.322;18.576;2022-08-21T15:55:48;8.32;;;2.40;;
71320;SDS011;59118;54.322;18.576;2022-08-21T15:58:15;6.03;;;2.17;;
71320;SDS011;59118;54.322;18.576;2022-08-21T16:00:42;8.52;;;2.75;;
71320;SDS011;59118;54.322;18.576;2022-08-21T16:03:11;10.23;;;2.60;;
71320;SDS011;59118;54.322;18.576;2022-08-21T16:05:41;5.80;;;2.03;;
71320;SDS011;59118;54.322;18.576;2022-08-21T16:08:08;7.72;;;2.33;;
71320;SDS011;59118;54.322;18.576;2022-08-21T16:10:36;6.77;;;2.43;;
71320;SDS011;59118;54.322;18.576;2022-08-21T16:13:16;7.70;;;2.30;;
71320;SDS011;59118;54.322;18.576;2022-08-21T16:16:17;8.45;;;2.45;;
71320;SDS011;59118;54.322;18.576;2022-08-21T16:18:46;7.93;;;2.35;;
71320;SDS011;59118;54.322;18.576;2022-08-21T16:21:17;8.55;;;2.53;;
71320;SDS011;59118;54.322;18.576;2022-08-21T16:23:45;8.53;;;2.50;;